Time;durP1;ratioP1;P1;durP2;ratioP2;P2;SDS_P1;SDS_P2;PMS_P1;PMS_P2;Temp;Humidity;BMP_temperature;BMP_pressure;BME280_temperature;BME280_humidity;BME280_pressure;Samples;Min_cycle;Max_cycle;Signal;HPM_P1;HPM_P2
2022/10/19 00:00:26;;;;;;;7.60;4.07;;;;;;;5.33;nan;-23965.66;5076867;28;20181;-80
2022/10/19 00:02:52;;;;;;;8.57;3.97;;;;;;;5.15;nan;-23960.41;5074889;28;20534;-78
2022/10/19 00:05:17;;;;;;;7.50;4.03;;;;;;;5.15;nan;-23960.41;5072924;28;20188;-76
2022/10/19 00:07:43;;;;;;;5.80;3.63;;;;;;;5.30;nan;-23964.81;5072244;28;20181;-80
2022/10/19 00:10:09;;;;;;;7.13;3.93;;;;;;;5.42;nan;-23967.94;5072022;28;20210;-77
2022/10/19 00:12:34;;;;;;;6.77;4.40;;;;;;;5.48;nan;-23969.63;5074699;28;20589;-81
2022/10/19 00:15:00;;;;;;;5.50;3.77;;;;;;;5.18;nan;-23961.38;5073700;28;20292;-74
2022/10/19 00:17:26;;;;;;;7.80;3.17;;;;;;;5.35;nan;-23966.09;5071687;28;20217;-76
2022/10/19 00:19:51;;;;;;;5.07;3.27;;;;;;;4.87;nan;-23952.56;5072512;28;20186;-79
2022/10/19 00:22:17;;;;;;;7.77;4.07;;;;;;;5.24;nan;-23963.09;5071530;28;20196;-81
2022/10/19 00:24:43;;;;;;;4.63;3.00;;;;;;;5.48;nan;-23969.78;5092071;28;20551;-80
2022/10/19 00:27:09;;;;;;;5.03;3.00;;;;;;;5.48;nan;-23969.78;5074818;28;20177;-78
2022/10/19 00:29:34;;;;;;;4.23;3.00;;;;;;;4.98;nan;-23955.69;5075094;28;20221;-78
2022/10/19 00:32:00;;;;;;;4.43;3.10;;;;;;;5.36;nan;-23966.22;5075239;28;20208;-75
2022/10/19 00:34:25;;;;;;;7.43;3.10;;;;;;;5.24;nan;-23962.94;5074584;28;20205;-82
2022/10/19 00:36:51;;;;;;;9.37;2.97;;;;;;;5.29;nan;-23964.50;5093473;28;20166;-80
2022/10/19 00:39:17;;;;;;;2.50;2.30;;;;;;;4.89;nan;-23953.28;5093229;28;20272;-81
2022/10/19 00:41:45;;;;;;;4.60;2.97;;;;;;;4.98;nan;-23955.69;5093461;28;20330;-79
2022/10/19 00:44:10;;;;;;;3.80;2.90;;;;;;;5.14;nan;-23960.09;5075035;28;20177;-77
2022/10/19 00:46:38;;;;;;;4.97;3.07;;;;;;;5.04;nan;-23957.41;5093175;28;20189;-78
2022/10/19 00:49:14;;;;;;;4.00;3.10;;;;;;;5.04;nan;-23957.41;5094063;28;20170;-78
2022/10/19 00:51:54;;;;;;;4.80;2.83;;;;;;;4.52;nan;-23942.75;5075781;28;20187;-80
2022/10/19 00:54:20;;;;;;;4.67;3.77;;;;;;;4.64;nan;-23946.03;5075137;28;20286;-81
2022/10/19 00:56:49;;;;;;;4.17;2.90;;;;;;;4.64;nan;-23946.03;5074855;28;20177;-79
2022/10/19 00:59:17;;;;;;;4.53;2.93;;;;;;;4.83;nan;-23951.44;5092901;28;20189;-79
2022/10/19 01:01:45;;;;;;;6.77;3.97;;;;;;;4.66;nan;-23946.75;5092627;28;20192;-78
2022/10/19 01:04:11;;;;;;;6.17;4.13;;;;;;;4.66;nan;-23946.75;5093384;28;20260;-78
2022/10/19 01:06:38;;;;;;;8.40;2.87;;;;;;;4.58;nan;-23944.31;5074912;28;20174;-77
2022/10/19 01:09:03;;;;;;;4.83;3.40;;;;;;;4.58;nan;-23944.31;5074315;28;20177;-80
2022/10/19 01:11:53;;;;;;;5.23;3.83;;;;;;;5.04;nan;-23957.41;5092767;28;20513;-78
2022/10/19 01:15:06;;;;;;;4.43;2.90;;;;;;;4.97;nan;-23955.41;5074537;28;20292;-77
2022/10/19 01:17:32;;;;;;;5.83;3.10;;;;;;;4.96;nan;-23955.00;5092913;28;20243;-80
2022/10/19 01:20:15;;;;;;;3.97;2.77;;;;;;;4.93;nan;-23954.28;5092284;28;20651;-79
2022/10/19 01:23:15;;;;;;;3.67;3.07;;;;;;;4.98;nan;-23955.56;5074601;28;20181;-80
2022/10/19 01:26:05;;;;;;;3.00;2.70;;;;;;;4.95;nan;-23954.72;5093260;28;20169;-80
2022/10/19 01:28:46;;;;;;;4.93;3.07;;;;;;;5.03;nan;-23957.13;5074893;28;20550;-76
2022/10/19 01:31:33;;;;;;;3.33;2.57;;;;;;;5.00;nan;-23956.25;5074342;28;20177;-81
2022/10/19 01:34:48;;;;;;;7.47;3.17;;;;;;;4.96;nan;-23955.13;5092848;28;20284;-78
2022/10/19 01:37:29;;;;;;;3.73;2.90;;;;;;;4.96;nan;-23955.13;5001412;28;20189;-80
2022/10/19 01:40:22;;;;;;;3.97;2.77;;;;;;;4.90;nan;-23953.56;5094709;28;20621;-82
2022/10/19 01:42:54;;;;;;;3.90;3.07;;;;;;;5.03;nan;-23956.97;5096470;28;20165;-80
2022/10/19 01:45:28;;;;;;;3.07;2.63;;;;;;;4.98;nan;-23955.69;5097122;28;20301;-79
2022/10/19 01:48:01;;;;;;;3.80;2.70;;;;;;;5.14;nan;-23960.09;5096838;28;20161;-78
2022/10/19 01:50:32;;;;;;;3.53;2.50;;;;;;;5.09;nan;-23958.69;5097013;28;20169;-78
2022/10/19 01:52:58;;;;;;;3.17;2.87;;;;;;;5.11;nan;-23959.41;5078452;28;20174;-80
2022/10/19 01:55:26;;;;;;;3.07;2.40;;;;;;;4.50;nan;-23942.19;5078160;28;20723;-80
2022/10/19 01:57:58;;;;;;;4.27;2.87;;;;;;;4.50;nan;-23942.19;5095881;28;20310;-79
2022/10/19 02:00:25;;;;;;;2.70;2.33;;;;;;;5.03;nan;-23957.13;5096415;28;20604;-79
2022/10/19 02:02:53;;;;;;;9.10;2.10;;;;;;;4.97;nan;-23955.41;5095797;28;20166;-76
2022/10/19 02:05:23;;;;;;;6.40;3.27;;;;;;;4.72;nan;-23948.31;5095822;28;20165;-77
2022/10/19 02:07:53;;;;;;;6.37;3.07;;;;;;;5.15;nan;-23960.41;5077503;28;20177;-77
2022/10/19 02:10:20;;;;;;;5.93;3.03;;;;;;;5.15;nan;-23960.41;5077704;28;20161;-76
2022/10/19 02:12:46;;;;;;;5.83;3.10;;;;;;;5.18;nan;-23961.25;5095584;28;20536;-76
2022/10/19 02:15:18;;;;;;;6.53;3.70;;;;;;;4.91;nan;-23953.72;5078151;28;20169;-77
2022/10/19 02:17:47;;;;;;;3.63;2.93;;;;;;;4.88;nan;-23952.84;5077758;28;20165;-80
2022/10/19 02:20:14;;;;;;;3.43;2.57;;;;;;;4.65;nan;-23946.44;5077366;28;20201;-78
2022/10/19 02:22:40;;;;;;;3.37;2.77;;;;;;;4.52;nan;-23942.75;5096181;28;20585;-78
2022/10/19 02:25:07;;;;;;;6.23;2.70;;;;;;;4.52;nan;-23942.75;5096158;28;20260;-78
2022/10/19 02:27:33;;;;;;;6.23;3.30;;;;;;;4.71;nan;-23948.03;5077544;28;20246;-79
2022/10/19 02:29:59;;;;;;;7.37;3.33;;;;;;;4.65;nan;-23946.31;5096116;28;20552;-79
2022/10/19 02:32:27;;;;;;;3.00;2.63;;;;;;;4.57;nan;-23944.03;5077414;28;20184;-76
2022/10/19 02:34:53;;;;;;;5.13;2.53;;;;;;;4.63;nan;-23945.75;5095479;28;20568;-78
2022/10/19 02:37:18;;;;;;;6.50;2.83;;;;;;;4.30;nan;-23936.50;5095798;28;20300;-80
2022/10/19 02:39:44;;;;;;;3.77;2.83;;;;;;;4.63;nan;-23945.75;5077561;28;20246;-76
2022/10/19 02:42:56;;;;;;;6.77;3.13;;;;;;;4.42;nan;-23939.91;5095639;28;20334;-79
2022/10/19 02:45:24;;;;;;;2.60;2.37;;;;;;;4.68;nan;-23947.16;5092088;28;20191;-80
2022/10/19 02:47:57;;;;;;;5.50;3.03;;;;;;;3.97;nan;-23927.22;5095391;28;20613;-78
2022/10/19 02:50:23;;;;;;;2.60;2.30;;;;;;;4.39;nan;-23939.19;5095312;28;20180;-78
2022/10/19 02:52:48;;;;;;;6.97;2.70;;;;;;;4.39;nan;-23939.19;5076975;28;20169;-77
2022/10/19 02:55:14;;;;;;;2.90;2.60;;;;;;;4.33;nan;-23937.47;5095451;28;20554;-76
2022/10/19 02:57:40;;;;;;;3.40;2.37;;;;;;;4.28;nan;-23936.06;5095115;28;20185;-76
2022/10/19 03:00:07;;;;;;;3.47;2.67;;;;;;;4.29;nan;-23936.34;5094820;28;20924;-79
2022/10/19 03:02:33;;;;;;;6.17;2.70;;;;;;;4.17;nan;-23932.78;5096012;28;20185;-79
2022/10/19 03:04:58;;;;;;;7.27;2.93;;;;;;;4.26;nan;-23935.50;5095408;28;20188;-76
2022/10/19 03:07:24;;;;;;;6.07;3.43;;;;;;;3.70;nan;-23919.53;5095377;28;20170;-76
2022/10/19 03:09:49;;;;;;;2.73;2.50;;;;;;;;;;5076917;28;20689;-79
2022/10/19 03:12:14;;;;;;;6.63;3.10;;;;;;;;;;5077379;28;20240;-78
2022/10/19 03:14:40;;;;;;;5.50;2.53;;;;;;;;;;5076979;28;20216;-78
2022/10/19 03:17:05;;;;;;;4.77;2.77;;;;;;;;;;5079819;28;20220;-77
2022/10/19 03:19:31;;;;;;;5.03;2.80;;;;;;;;;;5082684;28;20185;-76
2022/10/19 03:21:56;;;;;;;7.53;3.10;;;;;;;3.81;nan;-23922.81;5088145;28;20208;-77
2022/10/19 03:24:22;;;;;;;3.13;2.57;;;;;;;3.87;nan;-23924.53;5086522;28;20754;-79
2022/10/19 03:26:48;;;;;;;6.03;2.63;;;;;;;3.88;nan;-23924.81;5072994;28;20181;-76
2022/10/19 03:29:13;;;;;;;6.17;3.17;;;;;;;4.15;nan;-23932.34;5081969;28;20180;-79
2022/10/19 03:31:39;;;;;;;3.53;2.53;;;;;;;3.95;nan;-23926.66;5081324;28;20240;-79
2022/10/19 03:34:04;;;;;;;3.57;2.97;;;;;;;3.93;nan;-23926.09;5079783;28;20202;-80
2022/10/19 03:36:32;;;;;;;4.10;2.87;;;;;;;3.65;nan;-23918.25;5067832;28;20671;-82
2022/10/19 03:39:04;;;;;;;2.77;2.33;;;;;;;3.87;nan;-23924.53;5081230;28;20182;-78
2022/10/19 03:41:32;;;;;;;4.83;2.23;;;;;;;3.96;nan;-23927.09;5080369;28;20193;-80
2022/10/19 03:43:58;;;;;;;3.03;2.27;;;;;;;2.87;nan;-23896.16;5079657;28;20328;-82
2022/10/19 03:46:24;;;;;;;3.63;2.40;;;;;;;4.02;nan;-23928.66;5067783;28;20193;-76
2022/10/19 03:48:49;;;;;;;3.27;2.43;;;;;;;3.71;nan;-23919.97;5068649;28;20188;-80
2022/10/19 03:51:19;;;;;;;4.90;2.93;;;;;;;4.00;nan;-23928.22;5083336;28;20195;-77
2022/10/19 03:53:50;;;;;;;3.33;2.77;;;;;;;3.87;nan;-23924.53;5079220;28;20693;-78
2022/10/19 03:56:19;;;;;;;2.50;2.30;;;;;;;3.62;nan;-23917.25;5076502;28;20166;-77
2022/10/19 03:58:46;;;;;;;6.97;2.57;;;;;;;3.89;nan;-23924.94;5075629;28;20617;-78
2022/10/19 04:01:18;;;;;;;4.40;2.60;;;;;;;3.91;nan;-23925.53;5063611;28;20186;-78
2022/10/19 04:03:43;;;;;;;3.97;2.57;;;;;;;3.89;nan;-23925.09;5079220;28;20316;-80
2022/10/19 04:06:16;;;;;;;3.63;2.63;;;;;;;3.98;nan;-23927.66;5079522;28;20277;-79
2022/10/19 04:08:42;;;;;;;5.40;2.57;;;;;;;3.89;nan;-23924.94;5066581;28;22641;-80
2022/10/19 04:11:11;;;;;;;5.67;3.00;;;;;;;3.61;nan;-23916.97;5078645;28;20177;-78
2022/10/19 04:13:37;;;;;;;3.30;2.17;;;;;;;3.61;nan;-23917.13;5079195;28;20212;-77
2022/10/19 04:16:02;;;;;;;3.70;2.40;;;;;;;3.87;nan;-23924.53;5078676;28;20174;-77
2022/10/19 04:18:28;;;;;;;3.30;2.90;;;;;;;3.89;nan;-23924.94;5069542;28;20197;-77
2022/10/19 04:21:03;;;;;;;3.70;2.63;;;;;;;4.10;nan;-23930.94;5098476;28;20265;-79
2022/10/19 04:23:32;;;;;;;3.23;2.60;;;;;;;3.86;nan;-23924.09;5086299;28;20224;-79
2022/10/19 04:26:04;;;;;;;4.50;2.80;;;;;;;4.09;nan;-23930.66;5095343;28;20185;-82
2022/10/19 04:28:29;;;;;;;6.00;2.90;;;;;;;4.13;nan;-23931.66;5093395;28;20254;-81
2022/10/19 04:30:55;;;;;;;4.90;2.97;;;;;;;4.05;nan;-23929.50;5073960;28;20177;-80
2022/10/19 04:33:21;;;;;;;3.57;2.83;;;;;;;4.20;nan;-23933.63;5083332;28;20579;-78
2022/10/19 04:35:46;;;;;;;2.60;2.37;;;;;;;2.05;nan;-23873.16;5087541;28;20208;-77
2022/10/19 04:38:11;;;;;;;5.03;2.60;;;;;;;4.06;nan;-23929.78;5072467;28;20723;-79
2022/10/19 04:40:37;;;;;;;3.10;2.50;;;;;;;4.05;nan;-23929.38;5083105;28;20189;-78
2022/10/19 04:43:03;;;;;;;2.80;2.27;;;;;;;4.16;nan;-23932.50;5093563;28;20181;-76
2022/10/19 04:45:29;;;;;;;3.83;3.20;;;;;;;3.92;nan;-23925.94;5093891;28;20268;-78
2022/10/19 04:47:57;;;;;;;2.93;2.33;;;;;;;4.06;nan;-23929.66;5093406;28;20188;-77
2022/10/19 04:50:24;;;;;;;5.20;2.47;;;;;;;4.20;nan;-23933.63;5074415;28;20173;-79
2022/10/19 04:52:49;;;;;;;6.23;3.30;;;;;;;4.17;nan;-23932.94;5092548;28;20575;-80
2022/10/19 04:55:15;;;;;;;3.60;3.00;;;;;;;3.91;nan;-23925.66;5091017;28;20239;-77
2022/10/19 04:57:40;;;;;;;2.80;2.60;;;;;;;4.41;nan;-23939.75;5074583;28;20535;-84
2022/10/19 05:00:06;;;;;;;5.13;2.97;;;;;;;4.45;nan;-23940.91;5082770;28;20177;-82
2022/10/19 05:02:32;;;;;;;6.70;3.37;;;;;;;4.21;nan;-23934.06;5095228;28;20173;-84
2022/10/19 05:04:57;;;;;;;5.87;3.07;;;;;;;4.60;nan;-23944.88;5078096;28;20188;-80
2022/10/19 05:07:22;;;;;;;7.50;3.73;;;;;;;4.44;nan;-23940.47;5077801;28;20177;-79
2022/10/19 05:09:48;;;;;;;5.50;3.17;;;;;;;4.64;nan;-23946.03;5077271;28;20185;-80
2022/10/19 05:12:13;;;;;;;4.10;2.83;;;;;;;4.68;nan;-23947.16;5094742;28;20181;-84
2022/10/19 05:14:38;;;;;;;5.30;3.17;;;;;;;4.80;nan;-23950.72;5093942;28;20219;-76
2022/10/19 05:17:04;;;;;;;4.90;2.87;;;;;;;4.99;nan;-23955.84;5072112;28;20616;-79
2022/10/19 05:19:29;;;;;;;4.40;3.33;;;;;;;4.93;nan;-23954.13;5073408;28;20213;-82
2022/10/19 05:21:54;;;;;;;8.70;2.60;;;;;;;4.90;nan;-23953.44;5091537;28;20188;-77
2022/10/19 05:24:20;;;;;;;4.10;3.27;;;;;;;5.23;nan;-23962.81;5072895;28;20752;-78
2022/10/19 05:26:45;;;;;;;5.50;3.10;;;;;;;5.27;nan;-23963.94;5073968;28;20290;-80
2022/10/19 05:29:13;;;;;;;7.13;3.43;;;;;;;5.47;nan;-23969.34;5075110;28;20604;-79
2022/10/19 05:31:39;;;;;;;3.43;2.60;;;;;;;5.13;nan;-23959.97;5074701;28;20269;-79
2022/10/19 05:34:04;;;;;;;5.10;3.27;;;;;;;5.54;nan;-23971.47;5075391;28;20262;-83
2022/10/19 05:36:34;;;;;;;6.93;4.27;;;;;;;5.66;nan;-23974.75;5075388;28;20182;-77
2022/10/19 05:39:14;;;;;;;5.03;3.33;;;;;;;5.63;nan;-23973.91;5075523;28;20237;-78
2022/10/19 05:41:42;;;;;;;5.33;3.37;;;;;;;5.37;nan;-23966.66;5074134;28;20199;-77
2022/10/19 05:44:13;;;;;;;4.10;3.20;;;;;;;5.80;nan;-23978.72;5077086;28;20173;-79
2022/10/19 05:46:38;;;;;;;5.07;3.67;;;;;;;4.01;nan;-23928.38;5075323;28;20645;-77
2022/10/19 05:49:04;;;;;;;7.13;3.90;;;;;;;5.84;nan;-23979.72;5076187;28;20170;-77
2022/10/19 05:51:29;;;;;;;6.03;4.13;;;;;;;5.93;nan;-23982.44;5076813;28;20277;-79
2022/10/19 05:53:55;;;;;;;5.50;3.53;;;;;;;6.47;nan;-23997.47;5077572;28;20193;-76
2022/10/19 05:56:23;;;;;;;7.07;4.33;;;;;;;6.50;nan;-23998.47;5077207;28;20187;-76
2022/10/19 05:58:49;;;;;;;5.40;3.50;;;;;;;6.68;nan;-24003.31;5094828;28;20256;-77
2022/10/19 06:01:17;;;;;;;6.37;4.30;;;;;;;6.92;nan;-24010.13;5074324;28;20629;-79
2022/10/19 06:03:44;;;;;;;12.47;4.87;;;;;;;6.99;nan;-24012.09;5092410;28;20177;-78
2022/10/19 06:06:09;;;;;;;7.40;4.20;;;;;;;7.07;nan;-24014.38;5092065;28;20183;-80
2022/10/19 06:08:37;;;;;;;4.60;3.70;;;;;;;7.23;nan;-24018.91;5073831;28;20178;-75
2022/10/19 06:11:11;;;;;;;4.77;3.53;;;;;;;7.39;nan;-24023.31;5076649;28;20173;-78
2022/10/19 06:13:38;;;;;;;5.47;3.60;;;;;;;7.37;nan;-24022.88;5078308;28;20201;-76
2022/10/19 06:16:05;;;;;;;6.37;4.33;;;;;;;7.68;nan;-24031.53;5095057;28;20283;-78
2022/10/19 06:18:31;;;;;;;14.20;3.60;;;;;;;7.76;nan;-24033.78;5078675;28;20173;-77
2022/10/19 06:21:01;;;;;;;5.57;3.37;;;;;;;7.43;nan;-24024.44;5095367;28;20230;-84
2022/10/19 06:23:27;;;;;;;6.23;3.77;;;;;;;7.98;nan;-24039.88;5077345;28;20312;-76
2022/10/19 06:25:52;;;;;;;5.83;4.03;;;;;;;7.70;nan;-24032.09;5080014;28;20228;-79
2022/10/19 06:28:18;;;;;;;3.10;2.63;;;;;;;7.93;nan;-24038.47;5084053;28;20169;-78
2022/10/19 06:30:43;;;;;;;6.53;3.00;;;;;;;8.38;nan;-24051.06;5101943;28;20173;-76
2022/10/19 06:33:08;;;;;;;6.07;3.90;;;;;;;8.41;nan;-24051.91;5081922;28;20185;-79
2022/10/19 06:35:34;;;;;;;4.13;3.30;;;;;;;8.42;nan;-24052.19;5082375;28;20226;-77
2022/10/19 06:37:59;;;;;;;7.47;3.53;;;;;;;8.47;nan;-24053.63;5083598;28;20210;-80
2022/10/19 06:40:25;;;;;;;7.20;3.40;;;;;;;8.64;nan;-24058.28;5083084;28;20215;-79
2022/10/19 06:42:50;;;;;;;6.90;3.57;;;;;;;8.80;nan;-24062.94;5101471;28;20196;-80
2022/10/19 06:45:16;;;;;;;5.40;3.70;;;;;;;9.00;nan;-24068.34;5101188;28;20618;-79
2022/10/19 06:47:45;;;;;;;7.40;3.13;;;;;;;9.35;nan;-24078.22;5099667;28;20169;-78
2022/10/19 06:50:10;;;;;;;5.83;3.70;;;;;;;9.51;nan;-24082.75;5083476;28;20180;-78
2022/10/19 06:52:36;;;;;;;5.70;3.73;;;;;;;9.64;nan;-24086.28;5082275;28;20177;-76
2022/10/19 06:55:02;;;;;;;6.57;3.30;;;;;;;9.73;nan;-24088.97;5080081;28;20288;-81
2022/10/19 06:57:27;;;;;;;5.93;3.90;;;;;;;10.00;nan;-24096.44;5080577;28;20180;-79
2022/10/19 06:59:53;;;;;;;4.87;3.73;;;;;;;10.14;nan;-24100.25;5098924;28;20201;-77
2022/10/19 07:02:19;;;;;;;7.83;3.90;;;;;;;10.14;nan;-24100.25;5100421;28;20588;-75
2022/10/19 07:04:44;;;;;;;7.47;3.90;;;;;;;10.31;nan;-24105.06;5100605;28;20173;-78
2022/10/19 07:07:10;;;;;;;6.47;3.53;;;;;;;10.39;nan;-24107.19;5100871;28;20169;-80
2022/10/19 07:09:35;;;;;;;3.60;2.73;;;;;;;10.53;nan;-24111.13;5081438;28;20188;-80
2022/10/19 07:12:01;;;;;;;6.47;2.83;;;;;;;10.74;nan;-24116.91;5101226;28;20334;-78
2022/10/19 07:14:30;;;;;;;5.17;3.20;;;;;;;10.78;nan;-24118.19;5082851;28;20232;-77
2022/10/19 07:16:56;;;;;;;5.15;3.47;;;;;;;10.83;nan;-24119.47;5081861;28;20657;-78
2022/10/19 07:19:25;;;;;;;6.23;3.50;;;;;;;10.94;nan;-24122.69;5082929;28;20184;-78
2022/10/19 07:21:51;;;;;;;4.35;2.83;;;;;;;11.14;nan;-24128.19;5080513;28;20184;-79
2022/10/19 07:24:16;;;;;;;5.18;3.55;;;;;;;11.43;nan;-24136.22;5080336;28;20595;-79
2022/10/19 07:26:42;;;;;;;6.30;3.78;;;;;;;11.48;nan;-24137.63;5080805;28;20169;-77
2022/10/19 07:29:07;;;;;;;5.35;3.30;;;;;;;11.43;nan;-24136.38;5099813;28;20173;-77
2022/10/19 07:31:33;;;;;;;5.13;2.90;;;;;;;11.55;nan;-24139.47;5080000;28;20189;-80
2022/10/19 07:34:02;;;;;;;6.53;3.50;;;;;;;11.65;nan;-24142.28;5098634;28;20193;-82
2022/10/19 07:36:29;;;;;;;4.32;3.20;;;;;;;11.89;nan;-24149.19;5099150;28;20178;-78
2022/10/19 07:38:55;;;;;;;4.43;3.17;;;;;;;12.28;nan;-24160.03;5099336;28;20556;-82
2022/10/19 07:41:23;;;;;;;4.50;3.22;;;;;;;12.22;nan;-24158.22;5080948;28;20165;-80
2022/10/19 07:43:50;;;;;;;4.25;3.15;;;;;;;10.99;nan;-24123.97;5098033;28;20182;-77
2022/10/19 07:46:21;;;;;;;4.88;3.35;;;;;;;12.50;nan;-24165.94;5080425;28;20181;-78
2022/10/19 07:48:47;;;;;;;4.93;3.00;;;;;;;12.90;nan;-24177.06;5078852;28;20169;-77
2022/10/19 07:51:14;;;;;;;7.20;3.47;;;;;;;12.72;nan;-24172.13;5078640;28;20211;-81
2022/10/19 07:53:40;;;;;;;7.40;3.50;;;;;;;13.01;nan;-24180.16;5078747;28;20223;-78
2022/10/19 07:56:12;;;;;;;4.68;2.85;;;;;;;13.03;nan;-24180.84;5079749;28;20601;-78
2022/10/19 07:58:39;;;;;;;7.25;3.30;;;;;;;13.33;nan;-24189.00;5097696;28;20170;-78
2022/10/19 08:01:11;;;;;;;7.38;3.13;;;;;;;13.56;nan;-24195.47;5080767;28;20184;-79
2022/10/19 08:03:37;;;;;;;5.18;2.90;;;;;;;13.56;nan;-24195.47;5098525;28;20170;-78
2022/10/19 08:06:05;;;;;;;5.30;3.13;;;;;;;13.57;nan;-24195.88;5097742;28;20706;-78
2022/10/19 08:08:30;;;;;;;4.15;3.17;;;;;;;13.99;nan;-24207.41;5079204;28;20177;-78
2022/10/19 08:10:56;;;;;;;7.43;3.10;;;;;;;14.01;nan;-24207.97;5097618;28;20176;-81
2022/10/19 08:13:22;;;;;;;3.72;2.85;;;;;;;14.24;nan;-24214.28;5097055;28;20189;-79
2022/10/19 08:15:47;;;;;;;6.30;3.60;;;;;;;14.30;nan;-24215.94;5078706;28;20184;-81
2022/10/19 08:18:13;;;;;;;6.05;2.72;;;;;;;14.45;nan;-24220.16;5080423;28;20209;-79
2022/10/19 08:20:43;;;;;;;4.60;3.03;;;;;;;14.34;nan;-24217.22;5079371;28;20173;-79
2022/10/19 08:23:08;;;;;;;5.60;2.90;;;;;;;14.48;nan;-24221.16;5097316;28;20350;-76
2022/10/19 08:25:34;;;;;;;5.00;2.90;;;;;;;14.48;nan;-24221.16;5096002;28;20169;-78
2022/10/19 08:27:59;;;;;;;6.03;3.28;;;;;;;14.59;nan;-24224.09;5077256;28;20173;-78
2022/10/19 08:30:25;;;;;;;4.80;2.65;;;;;;;14.48;nan;-24221.00;5096041;28;20173;-76
2022/10/19 08:32:50;;;;;;;5.80;3.03;;;;;;;14.48;nan;-24221.00;5076322;28;20640;-76
2022/10/19 08:35:16;;;;;;;9.90;3.35;;;;;;;14.25;nan;-24214.56;5077453;28;20193;-80
2022/10/19 08:37:41;;;;;;;5.32;3.10;;;;;;;12.99;nan;-24179.72;5094798;28;20177;-79
2022/10/19 08:40:17;;;;;;;6.90;3.08;;;;;;;14.34;nan;-24217.06;5078087;28;20519;-79
2022/10/19 08:42:49;;;;;;;4.57;3.00;;;;;;;14.62;nan;-24224.94;5077657;28;20189;-80
2022/10/19 08:45:46;;;;;;;5.65;3.20;;;;;;;14.70;nan;-24227.19;5078423;28;20623;-80
2022/10/19 08:48:27;;;;;;;4.68;2.78;;;;;;;14.96;nan;-24234.31;5077244;28;20241;-81
2022/10/19 08:50:54;;;;;;;5.00;2.83;;;;;;;15.02;nan;-24236.00;5096424;28;20177;-79
2022/10/19 08:53:53;;;;;;;3.45;2.60;;;;;;;15.02;nan;-24236.16;5078870;28;20197;-79
2022/10/19 08:56:48;;;;;;;5.53;2.83;;;;;;;15.00;nan;-24235.59;5070917;28;20250;-78
2022/10/19 08:59:37;;;;;;;8.18;2.83;;;;;;;15.18;nan;-24240.50;5097537;28;20161;-78
2022/10/19 09:02:23;;;;;;;3.10;2.47;;;;;;;15.76;nan;-24256.59;5097440;28;20250;-80
2022/10/19 09:04:59;;;;;;;3.95;3.15;;;;;;;15.91;nan;-24260.78;5079260;28;20259;-78
2022/10/19 09:07:43;;;;;;;4.68;3.03;;;;;;;15.74;nan;-24255.91;5095761;28;20176;-76
2022/10/19 09:10:12;;;;;;;5.63;3.00;;;;;;;15.74;nan;-24255.91;5095391;28;20195;-77
2022/10/19 09:12:54;;;;;;;6.05;3.22;;;;;;;15.42;nan;-24247.06;5076603;28;20185;-80
2022/10/19 09:15:26;;;;;;;4.68;3.08;;;;;;;15.89;nan;-24260.22;5094801;28;20623;-80
2022/10/19 09:17:51;;;;;;;6.70;3.17;;;;;;;16.10;nan;-24265.97;5095553;28;20651;-80
2022/10/19 09:20:19;;;;;;;5.45;2.88;;;;;;;16.29;nan;-24271.28;5077257;28;20169;-78
2022/10/19 09:22:45;;;;;;;5.78;3.40;;;;;;;16.29;nan;-24271.28;5096213;28;20229;-80
2022/10/19 09:25:20;;;;;;;5.80;2.85;;;;;;;16.69;nan;-24282.31;5077752;28;20166;-78
2022/10/19 09:27:50;;;;;;;3.58;2.80;;;;;;;16.69;nan;-24282.31;5095013;28;20168;-79
2022/10/19 09:30:21;;;;;;;6.75;3.08;;;;;;;16.44;nan;-24275.34;5077038;28;20174;-77
2022/10/19 09:32:51;;;;;;;5.50;3.05;;;;;;;16.44;nan;-24275.34;5078097;28;20204;-78
2022/10/19 09:35:26;;;;;;;6.88;2.90;;;;;;;16.98;nan;-24290.28;5097525;28;20208;-77
2022/10/19 09:37:53;;;;;;;4.03;2.70;;;;;;;16.98;nan;-24290.28;5079272;28;20168;-79
2022/10/19 09:40:27;;;;;;;5.07;2.72;;;;;;;17.27;nan;-24298.25;5095106;28;20234;-80
2022/10/19 09:42:57;;;;;;;8.57;2.88;;;;;;;17.37;nan;-24300.91;5096887;28;20180;-76
2022/10/19 09:45:40;;;;;;;4.53;2.88;;;;;;;17.39;nan;-24301.59;5080585;28;20302;-75
2022/10/19 09:48:22;;;;;;;5.05;2.85;;;;;;;17.80;nan;-24312.75;5079821;28;20224;-79
2022/10/19 09:50:54;;;;;;;4.68;2.90;;;;;;;18.05;nan;-24319.72;5077966;28;20166;-78
2022/10/19 09:53:21;;;;;;;5.15;2.95;;;;;;;18.05;nan;-24319.72;5077279;28;20257;-78
2022/10/19 09:55:56;;;;;;;3.83;2.65;;;;;;;18.25;nan;-24325.31;5096269;28;20671;-77
2022/10/19 09:58:25;;;;;;;5.05;2.60;;;;;;;18.11;nan;-24321.41;5076702;28;20169;-80
2022/10/19 10:00:56;;;;;;;8.27;4.07;;;;;;;18.07;nan;-24320.28;5096297;28;20219;-77
2022/10/19 10:03:22;;;;;;;4.10;2.63;;;;;;;17.58;nan;-24306.91;5080884;28;20173;-78
2022/10/19 10:05:48;;;;;;;3.58;2.42;;;;;;;18.01;nan;-24318.75;5080880;28;20181;-78
2022/10/19 10:08:17;;;;;;;3.80;2.53;;;;;;;18.01;nan;-24318.75;5079645;28;20670;-80
2022/10/19 10:10:45;;;;;;;3.83;2.70;;;;;;;17.92;nan;-24316.09;5080718;28;20535;-79
2022/10/19 10:13:23;;;;;;;3.90;2.30;;;;;;;17.82;nan;-24313.31;5100699;28;20195;-76
2022/10/19 10:15:55;;;;;;;4.13;2.83;;;;;;;17.64;nan;-24308.44;5098911;28;20202;-80
2022/10/19 10:18:23;;;;;;;4.88;2.55;;;;;;;17.64;nan;-24308.44;5098795;28;20260;-76
2022/10/19 10:21:10;;;;;;;6.53;2.85;;;;;;;18.70;nan;-24337.56;5099918;28;20229;-80
2022/10/19 10:23:36;;;;;;;5.75;3.25;;;;;;;18.72;nan;-24338.13;5076988;28;20245;-78
2022/10/19 10:26:05;;;;;;;3.67;2.50;;;;;;;19.10;nan;-24348.69;5076273;28;20276;-79
2022/10/19 10:28:31;;;;;;;5.50;2.70;;;;;;;19.30;nan;-24354.28;5077641;28;20182;-77
2022/10/19 10:31:03;;;;;;;6.57;2.92;;;;;;;19.41;nan;-24357.19;5077259;28;20182;-77
2022/10/19 10:33:31;;;;;;;3.80;2.45;;;;;;;19.08;nan;-24348.16;5076526;28;20202;-79
2022/10/19 10:36:03;;;;;;;3.13;2.20;;;;;;;18.57;nan;-24333.94;5075702;28;20610;-77
2022/10/19 10:38:34;;;;;;;4.75;2.55;;;;;;;18.57;nan;-24333.94;5077807;28;20176;-81
2022/10/19 10:41:09;;;;;;;4.10;2.83;;;;;;;18.69;nan;-24337.44;5076541;28;20190;-82
2022/10/19 10:43:48;;;;;;;4.63;2.70;;;;;;;18.84;nan;-24341.47;5074875;28;20177;-78
2022/10/19 10:46:18;;;;;;;4.13;2.28;;;;;;;19.24;nan;-24352.47;5076248;28;20185;-80
2022/10/19 10:48:52;;;;;;;4.03;2.50;;;;;;;19.24;nan;-24352.47;5076664;28;20166;-82
2022/10/19 10:51:23;;;;;;;3.83;2.47;;;;;;;19.53;nan;-24360.38;5076082;28;20597;-78
2022/10/19 10:53:49;;;;;;;4.03;2.67;;;;;;;19.92;nan;-24371.09;5078052;28;20198;-80
2022/10/19 10:56:34;;;;;;;7.28;2.63;;;;;;;19.82;nan;-24368.59;5075765;28;20261;-81
2022/10/19 10:59:05;;;;;;;3.28;2.17;;;;;;;19.82;nan;-24368.47;5076492;28;20174;-79
2022/10/19 11:01:38;;;;;;;3.78;2.35;;;;;;;19.74;nan;-24366.38;5077927;28;20516;-78
2022/10/19 11:04:15;;;;;;;4.18;2.50;;;;;;;19.74;nan;-24366.38;5075439;28;20212;-80
2022/10/19 11:06:46;;;;;;;3.28;2.10;;;;;;;19.89;nan;-24370.41;5074642;28;20748;-78
2022/10/19 11:09:31;;;;;;;3.88;2.67;;;;;;;19.93;nan;-24371.50;5076657;28;20189;-77
2022/10/19 11:12:03;;;;;;;2.97;2.35;;;;;;;20.11;nan;-24376.50;5076524;28;20173;-80
2022/10/19 11:14:50;;;;;;;5.93;2.47;;;;;;;19.94;nan;-24371.78;5075304;28;20254;-81
2022/10/19 11:17:29;;;;;;;3.38;2.22;;;;;;;20.26;nan;-24380.53;5077646;28;20185;-79
2022/10/19 11:19:55;;;;;;;3.17;2.15;;;;;;;20.28;nan;-24381.09;5077173;28;20174;-78
2022/10/19 11:22:45;;;;;;;4.55;2.38;;;;;;;20.28;nan;-24381.09;5075696;28;20637;-78
2022/10/19 11:25:19;;;;;;;3.92;2.20;;;;;;;20.51;nan;-24387.34;5073322;28;20193;-76
2022/10/19 11:28:10;;;;;;;3.88;2.40;;;;;;;20.46;nan;-24386.09;5080973;28;20173;-78
2022/10/19 11:30:53;;;;;;;3.60;2.35;;;;;;;20.68;nan;-24392.06;5055952;28;20202;-80
2022/10/19 11:33:43;;;;;;;4.60;2.38;;;;;;;20.73;nan;-24393.59;5063040;28;20186;-79
2022/10/19 11:36:35;;;;;;;5.68;2.08;;;;;;;20.73;nan;-24393.59;5076425;28;20285;-77
2022/10/19 11:39:16;;;;;;;3.80;2.45;;;;;;;20.80;nan;-24395.41;5073843;28;20174;-78
2022/10/19 11:41:54;;;;;;;3.97;2.30;;;;;;;20.97;nan;-24400.13;5074584;28;20208;-79
2022/10/19 11:44:28;;;;;;;4.70;2.90;;;;;;;20.94;nan;-24399.16;5074566;28;20166;-79
2022/10/19 11:47:17;;;;;;;3.83;2.35;;;;;;;21.06;nan;-24402.59;5075666;28;20204;-79
2022/10/19 11:49:52;;;;;;;3.78;2.42;;;;;;;20.94;nan;-24399.16;5075653;28;20198;-78
2022/10/19 11:52:55;;;;;;;2.72;2.00;;;;;;;21.22;nan;-24406.78;5075376;28;20239;-78
2022/10/19 11:55:34;;;;;;;4.53;2.33;;;;;;;20.96;nan;-24399.69;5074994;28;20280;-79
2022/10/19 11:58:07;;;;;;;3.60;2.35;;;;;;;21.30;nan;-24409.13;5075136;28;20174;-82
2022/10/19 12:00:49;;;;;;;4.35;2.60;;;;;;;21.39;nan;-24411.50;5073822;28;20190;-76
2022/10/19 12:03:20;;;;;;;2.97;2.35;;;;;;;21.39;nan;-24411.50;5074410;28;20174;-78